createdAt,value
2023-05-14T05:57:25.710Z,1020.58
2023-05-14T06:07:30.501Z,1020.59
2023-05-14T06:17:40.299Z,1020.61
2023-05-14T06:27:51.323Z,1020.61
2023-05-14T06:38:01.394Z,1020.58
2023-05-14T06:48:11.564Z,1020.61
2023-05-14T06:58:21.408Z,1020.51
2023-05-14T07:08:31.328Z,1020.44
2023-05-14T07:18:41.375Z,1020.36
2023-05-14T07:28:51.422Z,1020.34
2023-05-14T07:39:02.763Z,1020.24
2023-05-14T07:49:13.879Z,1020.15
2023-05-14T07:59:24.026Z,1020.00
2023-05-14T08:09:34.413Z,1019.96
2023-05-14T08:19:45.367Z,1019.86
2023-05-14T08:29:55.419Z,1019.77
2023-05-14T08:40:05.433Z,1019.71
2023-05-14T08:50:16.273Z,1019.61
2023-05-14T09:00:27.363Z,1019.48
2023-05-14T09:10:39.210Z,1019.28
2023-05-14T09:20:49.221Z,1019.15
2023-05-14T09:30:59.901Z,1018.88
2023-05-14T09:41:11.428Z,1018.80
2023-05-14T09:51:21.851Z,1018.71
2023-05-14T10:01:31.300Z,1018.57
2023-05-14T10:11:40.978Z,1018.59
2023-05-14T10:21:50.588Z,1018.46
2023-05-14T10:32:00.520Z,1018.32
2023-05-14T10:42:10.434Z,1018.22
2023-05-14T10:52:20.265Z,1018.22
2023-05-14T11:02:30.951Z,1018.20
2023-05-14T11:12:40.878Z,1018.17
2023-05-14T11:22:52.115Z,1018.10
2023-05-14T11:33:02.304Z,1018.02
2023-05-14T11:43:11.529Z,1017.90
2023-05-14T11:53:21.625Z,1017.77
2023-05-14T12:03:31.136Z,1017.60
2023-05-14T12:13:41.304Z,1017.39
2023-05-14T12:23:51.077Z,1017.38
2023-05-14T12:34:01.351Z,1017.32
2023-05-14T12:44:11.565Z,1017.17
2023-05-14T12:54:21.451Z,1017.13
2023-05-14T13:04:31.125Z,1017.06
2023-05-14T13:14:42.064Z,1016.96
2023-05-14T13:24:51.542Z,1016.88
2023-05-14T13:35:01.118Z,1016.82
2023-05-14T13:45:11.178Z,1016.74
2023-05-14T13:55:20.576Z,1016.65
2023-05-14T14:05:31.468Z,1016.53
2023-05-14T14:15:41.084Z,1016.35
2023-05-14T14:25:50.587Z,1016.29
2023-05-14T14:36:00.238Z,1016.20
2023-05-14T14:46:11.441Z,1016.16
2023-05-14T14:56:21.694Z,1016.10
2023-05-14T15:06:32.921Z,1015.99
2023-05-14T15:16:44.366Z,1015.97
2023-05-14T15:26:54.391Z,1015.85
2023-05-14T15:37:05.024Z,1015.82
2023-05-14T15:47:15.074Z,1015.67
2023-05-14T15:57:26.181Z,1015.64
2023-05-14T16:07:37.259Z,1015.57
2023-05-14T16:17:47.591Z,1015.49
2023-05-14T16:27:57.101Z,1015.37
2023-05-14T16:38:07.978Z,1015.30
2023-05-14T16:48:18.178Z,1015.28
2023-05-14T16:58:28.015Z,1015.35
2023-05-14T17:08:37.283Z,1015.33
2023-05-14T17:18:47.073Z,1015.26
2023-05-14T17:28:57.137Z,1015.24
2023-05-14T17:39:07.986Z,1015.30
2023-05-14T17:49:18.843Z,1015.25
2023-05-14T17:59:29.598Z,1015.25
2023-05-14T18:09:40.648Z,1015.33
2023-05-14T18:19:51.461Z,1015.38
2023-05-14T18:30:02.289Z,1015.38
2023-05-14T18:40:13.857Z,1015.35
2023-05-14T18:50:25.512Z,1015.37
2023-05-14T19:00:35.141Z,1015.44
2023-05-14T19:10:44.912Z,1015.47
2023-05-14T19:20:56.149Z,1015.51
2023-05-14T19:31:05.518Z,1015.52
2023-05-14T19:41:14.880Z,1015.42
2023-05-14T19:51:24.581Z,1015.25
2023-05-14T20:01:34.295Z,1015.25
2023-05-14T20:11:45.340Z,1015.24
2023-05-14T20:21:54.908Z,1015.22
2023-05-14T20:32:05.590Z,1015.15
2023-05-14T20:42:16.546Z,1015.08
2023-05-14T20:52:27.167Z,1014.99
2023-05-14T21:02:38.063Z,1014.87
2023-05-14T21:12:47.950Z,1014.78
2023-05-14T21:22:57.818Z,1014.74
2023-05-14T21:33:08.599Z,1014.65
2023-05-14T21:43:18.756Z,1014.61
2023-05-14T21:53:28.880Z,1014.56
2023-05-14T22:03:38.707Z,1014.46
2023-05-14T22:13:48.916Z,1014.43
2023-05-14T22:23:58.862Z,1014.37
2023-05-14T22:34:08.695Z,1014.34
2023-05-14T22:44:19.746Z,1014.25
2023-05-14T22:54:30.613Z,1014.17
2023-05-14T23:04:40.079Z,1014.05
2023-05-14T23:14:49.727Z,1013.97
2023-05-14T23:25:00.478Z,1013.80
2023-05-14T23:35:11.402Z,1013.75
2023-05-14T23:45:21.899Z,1013.57
2023-05-14T23:55:32.870Z,1013.55
